Welcome to Northern Hawkes Bay. New Zealand.
PWS Header
      nz Flag



Hit Counter


W3C Valid W3C Valid logo


    Wairoa

Select any of the Stations below to visit their websites.










Historic Data from Weather Underground
Select the location of interest below. Wairoa is the default. Please have patience, this Data is slow to load in.
Northern Hawkes Bay Historical Data
Daily Summary for August 31, 2017 Units:  Metric    English   Both
« Previous Day
Next Day »
Daily Weekly Monthly Yearly Custom
  High: Low: Average:
Temperature: 15.7 °C 10.9 °C 12.5 °C
Dew Point: 14.9 °C 10.3 °C 11.5 °C
Humidity: 99% 83% 94%
Wind Speed: 17.2km/h 0.0km/h 4.8km/h
Wind Gust: 24.5km/h - -
Wind- - WSW
Pressure: 1009.7 hPa 1006.7 hPa -
Precipitation: 1.5 mm    
Historical Graphs
 
 
Tabular Data for August 31, 2017
Time Temperature Dew Point Pressure Wind Wind Speed Wind Gust Humidity Rainfall Rate (Hourly) solar
00:01 12.1 °C 11.7 °C 1008.4 hPa Calm   3.5 km/h 97% 0.0 mm 0 W/m2
00:06 12.1 °C 11.7 °C 1008.0 hPa Calm   3.5 km/h 97% 0.0 mm 0 W/m2
00:11 12.1 °C 11.7 °C 1008.0 hPa Calm   2.6 km/h 97% 0.0 mm 0 W/m2
00:16 12.1 °C 11.7 °C 1008.4 hPa Calm     97% 0.0 mm 0 W/m2
00:21 12.0 °C 11.6 °C 1008.0 hPa Calm     97% 0.0 mm 0 W/m2
00:26 12.0 °C 11.6 °C 1008.0 hPa Calm     97% 0.0 mm 0 W/m2
00:31 12.1 °C 11.7 °C 1008.0 hPa Calm     97% 0.0 mm 0 W/m2
00:36 12.1 °C 11.7 °C 1008.0 hPa North 2.6 km/h 3.5 km/h 97% 0.0 mm 0 W/m2
00:54 12.0 °C 11.6 °C 1007.7 hPa Calm   3.5 km/h 97% 0.0 mm 0 W/m2
00:59 12.0 °C 11.6 °C 1007.7 hPa Calm   3.5 km/h 97% 0.0 mm 0 W/m2
01:04 12.0 °C 11.6 °C 1008.0 hPa NNE 1.1 km/h 3.5 km/h 97% 0.0 mm 0 W/m2
01:09 12.0 °C 11.6 °C 1007.7 hPa NNW 1.1 km/h 3.5 km/h 97% 0.0 mm 0 W/m2
01:15 12.0 °C 11.6 °C 1007.7 hPa Calm   2.6 km/h 97% 0.0 mm 0 W/m2
01:20 11.9 °C 11.6 °C 1007.7 hPa Calm   1.1 km/h 98% 0.0 mm 0 W/m2
01:25 11.9 °C 11.6 °C 1007.7 hPa Calm   1.1 km/h 98% 0.0 mm 0 W/m2
01:30 11.8 °C 11.5 °C 1007.7 hPa Calm     98% 0.0 mm 0 W/m2
01:35 11.8 °C 11.5 °C 1007.7 hPa NW 1.1 km/h 2.6 km/h 98% 0.0 mm 0 W/m2
01:40 11.8 °C 11.5 °C 1007.3 hPa NNW 1.1 km/h 2.6 km/h 98% 0.0 mm 0 W/m2
01:46 11.7 °C 11.4 °C 1007.3 hPa Calm   2.6 km/h 98% 0.0 mm 0 W/m2
01:51 11.7 °C 11.4 °C 1007.7 hPa Calm   2.6 km/h 98% 0.0 mm 0 W/m2
01:56 11.7 °C 11.4 °C 1007.3 hPa Calm   1.1 km/h 98% 0.0 mm 0 W/m2
02:01 11.7 °C 11.4 °C 1007.3 hPa Calm   2.6 km/h 98% 0.0 mm 0 W/m2
02:06 11.7 °C 11.4 °C 1007.3 hPa Calm   2.6 km/h 98% 0.0 mm 0 W/m2
02:11 11.7 °C 11.4 °C 1007.3 hPa NNW 2.6 km/h 3.5 km/h 98% 0.0 mm 0 W/m2
02:16 11.7 °C 11.4 °C 1007.3 hPa NNW 2.6 km/h 3.5 km/h 98% 0.0 mm 0 W/m2
02:21 11.8 °C 11.5 °C 1007.3 hPa NNW 2.6 km/h 5.0 km/h 98% 0.0 mm 0 W/m2
02:26 11.8 °C 11.5 °C 1007.3 hPa NNW 2.6 km/h 5.0 km/h 98% 0.0 mm 0 W/m2
02:31 11.8 °C 11.5 °C 1007.0 hPa NNW 2.6 km/h 5.0 km/h 98% 0.3 mm 0 W/m2
02:36 11.8 °C 11.5 °C 1007.0 hPa NNW 1.1 km/h 5.0 km/h 98% 0.3 mm 0 W/m2
02:41 11.8 °C 11.5 °C 1007.0 hPa NNW 1.1 km/h 3.5 km/h 98% 0.3 mm 0 W/m2
02:46 11.8 °C 11.5 °C 1007.0 hPa NNW 2.6 km/h 6.1 km/h 98% 0.3 mm 0 W/m2
02:51 11.8 °C 11.5 °C 1007.0 hPa NNW 2.6 km/h 6.1 km/h 98% 0.3 mm 0 W/m2
02:56 11.8 °C 11.5 °C 1007.0 hPa NNW 2.6 km/h 5.0 km/h 98% 0.3 mm 0 W/m2
03:01 11.8 °C 11.5 °C 1007.0 hPa NNW 1.1 km/h 5.0 km/h 98% 0.3 mm 0 W/m2
03:06 11.7 °C 11.4 °C 1006.7 hPa NNW 2.6 km/h 5.0 km/h 98% 0.3 mm 0 W/m2
03:11 11.7 °C 11.4 °C 1006.7 hPa NNW 2.6 km/h 5.0 km/h 98% 0.3 mm 0 W/m2
03:16 11.7 °C 11.4 °C 1006.7 hPa NW 1.1 km/h 3.5 km/h 98% 0.3 mm 0 W/m2
03:21 11.6 °C 11.3 °C 1006.7 hPa Calm   3.5 km/h 98% 0.3 mm 0 W/m2
03:26 11.6 °C 11.3 °C 1006.7 hPa Calm   2.6 km/h 98% 0.3 mm 0 W/m2
03:31 11.6 °C 11.3 °C 1006.7 hPa Calm   1.1 km/h 98% 0.0 mm 0 W/m2
03:36 11.6 °C 11.3 °C 1006.7 hPa Calm   2.6 km/h 98% 0.0 mm 0 W/m2
03:41 11.6 °C 11.3 °C 1006.7 hPa Calm   2.6 km/h 98% 0.0 mm 0 W/m2
03:46 11.5 °C 11.2 °C 1006.7 hPa North 2.6 km/h 3.5 km/h 98% 0.0 mm 0 W/m2
03:51 11.5 °C 11.2 °C 1006.7 hPa North 1.1 km/h 3.5 km/h 98% 0.0 mm 0 W/m2
03:56 11.5 °C 11.2 °C 1006.7 hPa Calm   3.5 km/h 98% 0.0 mm 0 W/m2
04:01 11.5 °C 11.2 °C 1006.7 hPa Calm   2.6 km/h 98% 0.0 mm 0 W/m2
04:06 11.6 °C 11.3 °C 1006.7 hPa NNE 1.1 km/h 2.6 km/h 98% 0.0 mm 0 W/m2
04:11 11.6 °C 11.3 °C 1006.7 hPa NNE 1.1 km/h 3.5 km/h 98% 0.0 mm 0 W/m2
04:16 11.6 °C 11.3 °C 1006.7 hPa NNE 1.1 km/h 3.5 km/h 98% 0.0 mm 0 W/m2
04:21 11.7 °C 11.4 °C 1006.7 hPa NNW 2.6 km/h 5.0 km/h 98% 0.0 mm 0 W/m2
04:26 12.2 °C 11.7 °C 1006.7 hPa WNW 1.1 km/h 5.0 km/h 97% 0.0 mm 0 W/m2
04:36 11.6 °C 11.3 °C 1006.7 hPa NW 2.6 km/h 3.5 km/h 98% 0.0 mm 0 W/m2
04:41 11.6 °C 11.3 °C 1006.7 hPa NW 2.6 km/h 5.0 km/h 98% 0.0 mm 0 W/m2
04:46 11.7 °C 11.4 °C 1006.7 hPa NNW 1.1 km/h 5.0 km/h 98% 0.0 mm 0 W/m2
04:51 11.7 °C 11.4 °C 1006.7 hPa NW 2.6 km/h 5.0 km/h 98% 0.0 mm 0 W/m2
04:56 11.7 °C 11.4 °C 1006.7 hPa NW 2.6 km/h 5.0 km/h 98% 0.0 mm 0 W/m2
05:01 11.7 °C 11.4 °C 1006.7 hPa NW 2.6 km/h 7.2 km/h 98% 0.0 mm 0 W/m2
05:06 11.7 °C 11.4 °C 1006.7 hPa NW 1.1 km/h 7.2 km/h 98% 0.0 mm 0 W/m2
05:11 11.7 °C 11.4 °C 1006.7 hPa NW 3.5 km/h 5.0 km/h 98% 0.0 mm 0 W/m2
05:16 11.6 °C 11.3 °C 1006.7 hPa NW 2.6 km/h 5.0 km/h 98% 0.0 mm 0 W/m2
05:21 11.6 °C 11.3 °C 1006.7 hPa NW 1.1 km/h 5.0 km/h 98% 0.0 mm 0 W/m2
05:26 11.6 °C 11.3 °C 1006.7 hPa NNW 1.1 km/h 3.5 km/h 98% 0.0 mm 0 W/m2
05:31 11.6 °C 11.3 °C 1007.0 hPa NW 1.1 km/h 3.5 km/h 98% 0.0 mm 0 W/m2
05:36 11.6 °C 11.3 °C 1007.0 hPa NNW 2.6 km/h 5.0 km/h 98% 0.0 mm 0 W/m2
05:41 11.6 °C 11.3 °C 1006.7 hPa NNW 1.1 km/h 5.0 km/h 98% 0.0 mm 0 W/m2
05:46 11.6 °C 11.3 °C 1007.0 hPa Calm   5.0 km/h 98% 0.0 mm 0 W/m2
05:51 11.6 °C 11.3 °C 1007.0 hPa NNW 2.6 km/h 5.0 km/h 98% 0.0 mm 0 W/m2
05:56 11.6 °C 11.3 °C 1007.0 hPa NNW 2.6 km/h 5.0 km/h 98% 0.0 mm 0 W/m2
06:01 11.6 °C 11.3 °C 1007.3 hPa NNW 1.1 km/h 5.0 km/h 98% 0.0 mm 0 W/m2
06:06 11.6 °C 11.3 °C 1007.3 hPa NW 1.1 km/h 3.5 km/h 98% 0.0 mm 0 W/m2
06:11 11.6 °C 11.3 °C 1007.3 hPa Calm   3.5 km/h 98% 0.0 mm 0 W/m2
06:16 11.6 °C 11.3 °C 1007.0 hPa Calm   2.6 km/h 98% 0.0 mm 0 W/m2
06:21 11.6 °C 11.3 °C 1007.0 hPa North 1.1 km/h 2.6 km/h 98% 0.0 mm 0 W/m2
06:26 11.6 °C 11.3 °C 1007.3 hPa North 2.6 km/h 3.5 km/h 98% 0.0 mm 0 W/m2
06:31 11.6 °C 11.3 °C 1007.0 hPa NNW 1.1 km/h 5.0 km/h 98% 0.0 mm 0 W/m2
06:36 11.6 °C 11.3 °C 1007.0 hPa NNW 2.6 km/h 5.0 km/h 98% 0.0 mm 0 W/m2
06:41 11.6 °C 11.3 °C 1007.3 hPa NNW 2.6 km/h 5.0 km/h 98% 0.0 mm 0 W/m2
06:46 11.6 °C 11.3 °C 1007.3 hPa NNW 2.6 km/h 5.0 km/h 98% 0.0 mm 0 W/m2
06:51 11.6 °C 11.3 °C 1007.3 hPa NW 2.6 km/h 5.0 km/h 98% 0.0 mm 4 W/m2
06:56 11.7 °C 11.4 °C 1007.3 hPa NW 1.1 km/h 5.0 km/h 98% 0.0 mm 9 W/m2
07:01 11.6 °C 11.3 °C 1007.3 hPa NW 1.1 km/h 5.0 km/h 98% 0.0 mm 17 W/m2
07:06 11.6 °C 11.3 °C 1007.3 hPa NNW 1.1 km/h 3.5 km/h 98% 0.0 mm 18 W/m2
07:11 11.6 °C 11.3 °C 1007.3 hPa North 1.1 km/h 3.5 km/h 98% 0.0 mm 19 W/m2
07:16 11.6 °C 11.3 °C 1007.3 hPa North 1.1 km/h 3.5 km/h 98% 0.0 mm 26 W/m2
07:21 11.6 °C 11.3 °C 1007.7 hPa North 1.1 km/h 2.6 km/h 98% 0.0 mm 39 W/m2
07:26 11.7 °C 11.4 °C 1007.7 hPa Calm   3.5 km/h 98% 0.0 mm 39 W/m2
07:31 11.8 °C 11.5 °C 1007.7 hPa North 1.1 km/h 5.0 km/h 98% 0.0 mm 40 W/m2
07:36 11.9 °C 11.6 °C 1007.7 hPa North 1.1 km/h 5.0 km/h 98% 0.0 mm 45 W/m2
07:41 12.0 °C 11.6 °C 1007.7 hPa North 1.1 km/h 5.0 km/h 97% 0.0 mm 47 W/m2
07:46 12.1 °C 11.7 °C 1007.7 hPa North 1.1 km/h 3.5 km/h 97% 0.0 mm 51 W/m2
07:51 12.2 °C 11.7 °C 1007.7 hPa Calm   3.5 km/h 97% 0.0 mm 42 W/m2
07:56 12.2 °C 11.7 °C 1007.7 hPa Calm   2.6 km/h 97% 0.0 mm 30 W/m2
08:01 12.3 °C 11.8 °C 1007.7 hPa Calm   2.6 km/h 97% 0.0 mm 34 W/m2
08:06 12.3 °C 11.8 °C 1007.7 hPa North 1.1 km/h 3.5 km/h 97% 0.0 mm 51 W/m2
08:11 12.3 °C 11.8 °C 1007.7 hPa NNW 1.1 km/h 3.5 km/h 97% 0.0 mm 62 W/m2
08:16 12.4 °C 11.9 °C 1007.7 hPa North 2.6 km/h 5.0 km/h 97% 0.0 mm 74 W/m2
08:21 12.5 °C 12.1 °C 1007.7 hPa NNW 2.6 km/h 5.0 km/h 97% 0.0 mm 80 W/m2
08:26 12.4 °C 11.9 °C 1007.7 hPa NW 2.6 km/h 5.0 km/h 97% 0.0 mm 75 W/m2
08:31 12.6 °C 12.2 °C 1007.7 hPa NNW 2.6 km/h 5.0 km/h 97% 0.0 mm 84 W/m2
08:36 12.6 °C 12.2 °C 1007.7 hPa North 3.5 km/h 6.1 km/h 97% 0.0 mm 90 W/m2
08:41 12.7 °C 12.2 °C 1007.7 hPa North 3.5 km/h 6.1 km/h 97% 0.0 mm 86 W/m2
08:51 12.9 °C 12.4 °C 1007.7 hPa Calm   6.1 km/h 97% 0.0 mm 120 W/m2
08:56 13.3 °C 13.2 °C 1007.7 hPa Calm   3.5 km/h 99% 0.0 mm 133 W/m2
09:01 13.5 °C 13.3 °C 1008.0 hPa North 2.6 km/h 3.5 km/h 99% 0.0 mm 161 W/m2
09:06 13.8 °C 13.7 °C 1008.0 hPa NNW 1.1 km/h 3.5 km/h 99% 0.0 mm 160 W/m2
09:11 14.3 °C 14.2 °C 1008.0 hPa NNW 2.6 km/h 5.0 km/h 99% 0.0 mm 166 W/m2
09:16 14.5 °C 14.3 °C 1008.0 hPa WNW 1.1 km/h 5.0 km/h 99% 0.0 mm 121 W/m2
09:21 14.4 °C 14.1 °C 1008.0 hPa WSW 1.1 km/h 6.1 km/h 98% 0.0 mm 156 W/m2
09:31 15.7 °C 14.9 °C 1007.7 hPa WSW 6.1 km/h 8.7 km/h 95% 0.0 mm 124 W/m2
09:36 14.9 °C 13.6 °C 1008.0 hPa WSW 8.7 km/h 9.7 km/h 92% 0.0 mm 71 W/m2
09:41 14.0 °C 12.4 °C 1008.0 hPa SW 3.5 km/h 12.2 km/h 90% 0.0 mm 72 W/m2
09:46 13.6 °C 12.0 °C 1008.0 hPa SW 8.7 km/h 12.2 km/h 90% 0.0 mm 62 W/m2
09:51 13.5 °C 11.9 °C 1008.0 hPa SW 3.5 km/h 12.2 km/h 90% 0.0 mm 80 W/m2
09:56 13.6 °C 12.0 °C 1008.0 hPa SW 6.1 km/h 12.2 km/h 90% 0.0 mm 146 W/m2
10:01 14.6 °C 12.8 °C 1008.0 hPa SW 9.7 km/h 12.2 km/h 89% 0.0 mm 209 W/m2
10:06 15.4 °C 13.1 °C 1007.7 hPa SW 7.2 km/h 12.2 km/h 86% 0.0 mm 242 W/m2
10:11 15.4 °C 12.6 °C 1008.0 hPa SW 11.1 km/h 12.2 km/h 83% 0.0 mm 162 W/m2
10:21 14.1 °C 11.6 °C 1008.0 hPa SW 8.7 km/h 13.4 km/h 85% 0.0 mm 76 W/m2
10:26 13.8 °C 11.7 °C 1008.0 hPa SW 6.1 km/h 13.4 km/h 87% 0.0 mm 80 W/m2
10:31 13.6 °C 11.5 °C 1008.0 hPa SW 7.2 km/h 12.2 km/h 87% 0.0 mm 85 W/m2
10:36 13.6 °C 11.7 °C 1008.0 hPa SSW 8.7 km/h 13.4 km/h 88% 0.0 mm 102 W/m2
10:41 13.6 °C 11.7 °C 1008.0 hPa SSW 8.7 km/h 14.8 km/h 88% 0.0 mm 134 W/m2
10:46 14.1 °C 12.0 °C 1008.0 hPa SSW 7.2 km/h 14.8 km/h 87% 0.0 mm 232 W/m2
10:51 15.3 °C 13.0 °C 1008.0 hPa SSW 13.4 km/h 17.2 km/h 86% 0.0 mm 521 W/m2
10:56 15.2 °C 12.3 °C 1008.0 hPa SSW 11.1 km/h 17.2 km/h 83% 0.0 mm 216 W/m2
11:01 14.7 °C 12.2 °C 1008.4 hPa SW 6.1 km/h 17.2 km/h 85% 0.0 mm 172 W/m2
11:06 14.4 °C 11.9 °C 1008.0 hPa SW 9.7 km/h 15.8 km/h 85% 0.0 mm 151 W/m2
11:11 14.3 °C 12.0 °C 1008.0 hPa SW 9.7 km/h 14.8 km/h 86% 0.0 mm 151 W/m2
11:16 14.1 °C 11.8 °C 1008.0 hPa SW 7.2 km/h 17.2 km/h 86% 0.0 mm 146 W/m2
11:21 14.0 °C 11.9 °C 1008.0 hPa SW 13.4 km/h 17.2 km/h 87% 0.0 mm 157 W/m2
11:26 13.8 °C 12.0 °C 1008.0 hPa SW 12.2 km/h 15.8 km/h 89% 0.0 mm 186 W/m2
11:31 13.8 °C 12.0 °C 1008.0 hPa SW 9.7 km/h 15.8 km/h 89% 0.0 mm 160 W/m2
11:36 13.8 °C 12.2 °C 1007.7 hPa SW 9.7 km/h 15.8 km/h 90% 0.0 mm 169 W/m2
11:41 13.6 °C 12.2 °C 1008.0 hPa SW 6.1 km/h 15.8 km/h 91% 0.0 mm 170 W/m2
11:46 13.6 °C 12.2 °C 1007.7 hPa SW 7.2 km/h 15.8 km/h 91% 0.0 mm 171 W/m2
11:51 13.6 °C 12.2 °C 1008.0 hPa SW 9.7 km/h 15.8 km/h 91% 0.0 mm 176 W/m2
11:56 13.6 °C 12.3 °C 1007.7 hPa SW 12.2 km/h 17.2 km/h 92% 0.3 mm 180 W/m2
12:01 13.6 °C 12.3 °C 1007.7 hPa SSW 12.2 km/h 17.2 km/h 92% 0.3 mm 210 W/m2
12:06 13.5 °C 12.2 °C 1007.7 hPa SSW 11.1 km/h 19.5 km/h 92% 0.3 mm 181 W/m2
12:11 13.4 °C 12.1 °C 1007.3 hPa SW 9.7 km/h 19.5 km/h 92% 0.3 mm 166 W/m2
12:16 13.4 °C 12.3 °C 1007.3 hPa SSW 14.8 km/h 19.5 km/h 93% 0.3 mm 148 W/m2
12:26 13.4 °C 12.3 °C 1007.3 hPa SW 12.2 km/h 19.5 km/h 93% 0.3 mm 270 W/m2
12:31 13.6 °C 12.5 °C 1007.3 hPa SSW 15.8 km/h 19.5 km/h 93% 0.3 mm 277 W/m2
12:36 13.5 °C 12.2 °C 1007.3 hPa SW 14.8 km/h 21.9 km/h 92% 0.3 mm 196 W/m2
12:41 13.4 °C 12.1 °C 1007.3 hPa SW 14.8 km/h 21.9 km/h 92% 0.3 mm 182 W/m2
12:46 13.3 °C 12.1 °C 1007.3 hPa SW 12.2 km/h 18.3 km/h 92% 0.3 mm 165 W/m2
12:51 13.4 °C 12.1 °C 1007.3 hPa SW 15.8 km/h 19.5 km/h 92% 0.3 mm 163 W/m2
12:56 13.2 °C 11.9 °C 1007.0 hPa SW 11.1 km/h 19.5 km/h 92% 0.0 mm 176 W/m2
13:01 13.1 °C 11.8 °C 1007.0 hPa SW 7.2 km/h 18.3 km/h 92% 0.0 mm 187 W/m2
13:06 13.3 °C 12.1 °C 1007.0 hPa SW 17.2 km/h 19.5 km/h 92% 0.0 mm 195 W/m2
13:11 13.4 °C 11.9 °C 1007.0 hPa SW 8.7 km/h 19.5 km/h 91% 0.0 mm 183 W/m2
13:16 13.5 °C 12.1 °C 1007.0 hPa SW 12.2 km/h 19.5 km/h 91% 0.0 mm 145 W/m2
13:21 13.4 °C 11.9 °C 1007.0 hPa SW 12.2 km/h 18.3 km/h 91% 0.0 mm 106 W/m2
13:26 13.1 °C 11.5 °C 1007.0 hPa SW 9.7 km/h 19.5 km/h 90% 0.0 mm 90 W/m2
13:30 13.0 °C 11.6 °C 1007.0 hPa SW 11.1 km/h 19.5 km/h 91% 0.0 mm 83 W/m2
13:36 13.0 °C 11.6 °C 1007.0 hPa SW 11.1 km/h 19.5 km/h 91% 0.0 mm 102 W/m2
13:41 12.9 °C 11.6 °C 1007.0 hPa SSW 9.7 km/h 19.5 km/h 92% 0.0 mm 106 W/m2
13:46 12.9 °C 11.6 °C 1007.0 hPa SSW 11.1 km/h 18.3 km/h 92% 0.0 mm 118 W/m2
13:51 13.0 °C 11.6 °C 1007.0 hPa SSW 11.1 km/h 17.2 km/h 91% 0.0 mm 112 W/m2
13:56 13.0 °C 11.6 °C 1007.0 hPa SW 5.0 km/h 17.2 km/h 91% 0.0 mm 146 W/m2
14:01 13.3 °C 11.9 °C 1007.0 hPa SW 13.4 km/h 17.2 km/h 91% 0.0 mm 202 W/m2
14:06 14.1 °C 12.3 °C 1006.7 hPa SW 12.2 km/h 18.3 km/h 89% 0.0 mm 299 W/m2
14:11 14.3 °C 12.2 °C 1006.7 hPa SW 6.1 km/h 18.3 km/h 87% 0.0 mm 422 W/m2
14:16 15.0 °C 12.5 °C 1007.0 hPa SSW 9.7 km/h 18.3 km/h 85% 0.0 mm 296 W/m2
14:21 14.8 °C 12.1 °C 1007.0 hPa SW 12.2 km/h 15.8 km/h 84% 0.0 mm 222 W/m2
14:26 14.3 °C 11.6 °C 1007.0 hPa SW 8.7 km/h 17.2 km/h 84% 0.0 mm 196 W/m2
14:31 14.0 °C 11.5 °C 1007.0 hPa SSW 5.0 km/h 17.2 km/h 85% 0.0 mm 154 W/m2
14:36 13.9 °C 11.8 °C 1007.3 hPa SW 5.0 km/h 12.2 km/h 87% 0.0 mm 136 W/m2
14:41 13.9 °C 11.8 °C 1007.0 hPa WSW 9.7 km/h 13.4 km/h 87% 0.0 mm 190 W/m2
14:46 13.9 °C 11.8 °C 1007.0 hPa SW 8.7 km/h 15.8 km/h 87% 0.0 mm 172 W/m2
14:51 13.8 °C 11.7 °C 1007.3 hPa SW 7.2 km/h 15.8 km/h 87% 0.0 mm 143 W/m2
14:56 13.6 °C 11.5 °C 1007.0 hPa SW 5.0 km/h 11.1 km/h 87% 0.0 mm 143 W/m2
15:01 13.6 °C 11.7 °C 1007.0 hPa SW 3.5 km/h 8.7 km/h 88% 0.0 mm 101 W/m2
15:06 13.6 °C 11.7 °C 1007.0 hPa SW 5.0 km/h 8.7 km/h 88% 0.0 mm 115 W/m2
15:11 13.6 °C 11.8 °C 1007.0 hPa WSW 7.2 km/h 9.7 km/h 89% 0.0 mm 126 W/m2
15:18 13.6 °C 11.8 °C 1007.0 hPa SW 3.5 km/h 11.1 km/h 89% 0.0 mm 153 W/m2
15:23 13.6 °C 11.7 °C 1007.3 hPa SW 7.2 km/h 11.1 km/h 88% 0.0 mm 140 W/m2
15:24 13.6 °C 11.7 °C 1007.0 hPa SW 6.1 km/h 11.1 km/h 88% 0.0 mm 141 W/m2
15:29 13.8 °C 11.8 °C 1007.0 hPa SSW 6.1 km/h 11.1 km/h 88% 0.0 mm 137 W/m2
15:33 14.0 °C 11.9 °C 1007.0 hPa SSW 6.1 km/h 11.1 km/h 87% 0.0 mm 135 W/m2
15:38 13.9 °C 11.8 °C 1007.0 hPa SSW 6.1 km/h 9.7 km/h 87% 0.0 mm 191 W/m2
15:43 14.4 °C 12.1 °C 1007.0 hPa SSW 5.0 km/h 8.7 km/h 86% 0.0 mm 144 W/m2
15:44 14.5 °C 12.2 °C 1007.0 hPa SSW 3.5 km/h 8.7 km/h 86% 0.0 mm 130 W/m2
15:49 14.4 °C 11.9 °C 1007.3 hPa SSW 5.0 km/h 8.7 km/h 85% 0.0 mm 105 W/m2
15:54 14.0 °C 11.5 °C 1007.3 hPa SW 5.0 km/h 8.7 km/h 85% 0.0 mm 90 W/m2
15:59 13.6 °C 11.5 °C 1007.3 hPa SW 6.1 km/h 8.7 km/h 87% 0.0 mm 83 W/m2
16:04 13.6 °C 11.7 °C 1007.3 hPa SW 3.5 km/h 8.7 km/h 88% 0.0 mm 74 W/m2
16:09 13.5 °C 11.7 °C 1007.3 hPa SSW 5.0 km/h 9.7 km/h 89% 0.0 mm 89 W/m2
16:14 13.5 °C 11.7 °C 1007.3 hPa SSW 7.2 km/h 9.7 km/h 89% 0.0 mm 52 W/m2
16:19 13.4 °C 11.8 °C 1007.3 hPa SSW 6.1 km/h 9.7 km/h 90% 0.0 mm 26 W/m2
16:24 13.2 °C 11.6 °C 1007.7 hPa SSW 6.1 km/h 11.1 km/h 90% 0.0 mm 15 W/m2
16:29 13.1 °C 11.5 °C 1007.7 hPa SSW 7.2 km/h 12.2 km/h 90% 0.0 mm 11 W/m2
16:34 13.0 °C 11.6 °C 1007.3 hPa South 3.5 km/h 12.2 km/h 91% 0.0 mm 11 W/m2
16:38 12.9 °C 11.6 °C 1007.7 hPa South 6.1 km/h 12.2 km/h 92% 0.0 mm 13 W/m2
16:44 12.8 °C 11.7 °C 1007.7 hPa SSW 6.1 km/h 11.1 km/h 93% 0.0 mm 16 W/m2
16:49 12.8 °C 11.7 °C 1007.7 hPa SSW 5.0 km/h 11.1 km/h 93% 0.0 mm 19 W/m2
16:54 12.9 °C 11.8 °C 1007.7 hPa South 5.0 km/h 8.7 km/h 93% 0.0 mm 19 W/m2
16:59 12.9 °C 11.8 °C 1007.7 hPa SSW 7.2 km/h 12.2 km/h 93% 0.0 mm 21 W/m2
17:04 12.9 °C 11.8 °C 1007.7 hPa South 6.1 km/h 12.2 km/h 93% 0.0 mm 19 W/m2
17:08 12.9 °C 11.8 °C 1007.7 hPa South 3.5 km/h 12.2 km/h 93% 0.0 mm 10 W/m2
17:14 12.9 °C 11.8 °C 1007.7 hPa South 9.7 km/h 14.8 km/h 93% 0.0 mm 6 W/m2
17:18 12.7 °C 11.6 °C 1007.7 hPa SSW 8.7 km/h 14.8 km/h 93% 0.0 mm 6 W/m2
17:24 12.6 °C 11.7 °C 1008.0 hPa SSW 9.7 km/h 15.8 km/h 94% 0.3 mm 3 W/m2
17:29 12.5 °C 11.7 °C 1007.7 hPa SSW 13.4 km/h 19.5 km/h 95% 0.3 mm 3 W/m2
17:33 12.4 °C 11.6 °C 1007.7 hPa SSW 11.1 km/h 19.5 km/h 95% 0.3 mm 2 W/m2
17:39 12.3 °C 11.7 °C 1008.0 hPa SSW 12.2 km/h 19.5 km/h 96% 0.3 mm 0 W/m2
17:44 12.3 °C 11.7 °C 1008.0 hPa South 11.1 km/h 18.3 km/h 96% 0.3 mm 0 W/m2
17:48 12.2 °C 11.6 °C 1008.0 hPa SSW 9.7 km/h 19.5 km/h 96% 0.3 mm 0 W/m2
17:54 12.2 °C 11.6 °C 1008.0 hPa South 12.2 km/h 19.5 km/h 96% 0.3 mm 0 W/m2
17:58 12.3 °C 11.7 °C 1008.4 hPa South 9.7 km/h 19.5 km/h 96% 0.3 mm 0 W/m2
18:04 12.3 °C 11.7 °C 1008.4 hPa South 9.7 km/h 19.5 km/h 96% 0.3 mm 0 W/m2
18:08 12.3 °C 11.7 °C 1008.4 hPa SSW 9.7 km/h 21.9 km/h 96% 0.3 mm 0 W/m2
18:13 12.3 °C 11.7 °C 1008.4 hPa SSW 8.7 km/h 24.5 km/h 96% 0.3 mm 0 W/m2
18:18 12.3 °C 11.7 °C 1008.4 hPa South 11.1 km/h 24.5 km/h 96% 0.3 mm 0 W/m2
18:23 12.3 °C 11.7 °C 1008.7 hPa South 9.7 km/h 19.5 km/h 96% 0.0 mm 0 W/m2
18:29 12.2 °C 11.4 °C 1008.4 hPa South 8.7 km/h 20.9 km/h 95% 0.0 mm 0 W/m2
18:34 12.1 °C 11.2 °C 1008.7 hPa South 17.2 km/h 23.3 km/h 94% 0.0 mm 0 W/m2
18:38 12.1 °C 11.2 °C 1008.4 hPa SSW 7.2 km/h 23.3 km/h 94% 0.0 mm 0 W/m2
18:43 12.2 °C 11.1 °C 1008.7 hPa SSW 5.0 km/h 23.3 km/h 93% 0.0 mm 0 W/m2
18:48 12.1 °C 11.0 °C 1008.7 hPa SSW 7.2 km/h 20.9 km/h 93% 0.0 mm 0 W/m2
18:53 12.2 °C 10.9 °C 1008.7 hPa SSW 9.7 km/h 21.9 km/h 92% 0.0 mm 0 W/m2
18:58 12.2 °C 10.9 °C 1009.0 hPa SSW 13.4 km/h 21.9 km/h 92% 0.0 mm 0 W/m2
19:03 12.3 °C 11.1 °C 1008.7 hPa South 7.2 km/h 20.9 km/h 92% 0.0 mm 0 W/m2
19:08 12.4 °C 11.2 °C 1009.0 hPa South 6.1 km/h 19.5 km/h 92% 0.0 mm 0 W/m2
19:15 12.3 °C 11.1 °C 1008.7 hPa SSW 11.1 km/h 15.8 km/h 92% 0.0 mm 0 W/m2
19:20 12.2 °C 10.9 °C 1009.0 hPa SSW 11.1 km/h 18.3 km/h 92% 0.0 mm 0 W/m2
19:25 12.2 °C 10.8 °C 1009.0 hPa SSW 11.1 km/h 18.3 km/h 91% 0.0 mm 0 W/m2
19:30 12.3 °C 10.9 °C 1009.0 hPa SSW 9.7 km/h 19.5 km/h 91% 0.0 mm 0 W/m2
19:36 12.3 °C 11.1 °C 1009.0 hPa SSW 6.1 km/h 19.5 km/h 92% 0.0 mm 0 W/m2
19:41 12.2 °C 10.9 °C 1009.0 hPa SSW 7.2 km/h 14.8 km/h 92% 0.0 mm 0 W/m2
19:45 12.2 °C 10.8 °C 1009.0 hPa South 7.2 km/h 14.8 km/h 91% 0.0 mm 0 W/m2
19:50 12.2 °C 10.8 °C 1009.0 hPa South 5.0 km/h 20.9 km/h 91% 0.0 mm 0 W/m2
19:55 12.3 °C 10.9 °C 1009.4 hPa South 6.1 km/h 20.9 km/h 91% 0.0 mm 0 W/m2
20:00 12.3 °C 10.9 °C 1009.4 hPa SSW 6.1 km/h 14.8 km/h 91% 0.0 mm 0 W/m2
20:05 12.3 °C 10.9 °C 1009.0 hPa SSW 3.5 km/h 12.2 km/h 91% 0.0 mm 0 W/m2
20:10 12.3 °C 10.9 °C 1009.4 hPa SW 7.2 km/h 14.8 km/h 91% 0.0 mm 0 W/m2
20:15 12.3 °C 10.9 °C 1009.4 hPa SW 6.1 km/h 14.8 km/h 91% 0.0 mm 0 W/m2
20:20 12.3 °C 10.9 °C 1009.4 hPa SW 5.0 km/h 11.1 km/h 91% 0.0 mm 0 W/m2
20:25 12.2 °C 10.9 °C 1009.4 hPa SW 7.2 km/h 13.4 km/h 92% 0.0 mm 0 W/m2
20:30 12.1 °C 10.8 °C 1009.4 hPa SSW 6.1 km/h 13.4 km/h 92% 0.0 mm 0 W/m2
20:35 12.1 °C 10.8 °C 1009.4 hPa SSW 3.5 km/h 12.2 km/h 92% 0.0 mm 0 W/m2
20:40 12.2 °C 10.9 °C 1009.4 hPa SW 7.2 km/h 12.2 km/h 92% 0.0 mm 0 W/m2
20:45 12.0 °C 10.7 °C 1009.4 hPa SW 7.2 km/h 15.8 km/h 92% 0.0 mm 0 W/m2
20:50 11.7 °C 10.8 °C 1009.4 hPa SW 6.1 km/h 15.8 km/h 94% 0.0 mm 0 W/m2
20:55 11.6 °C 10.7 °C 1009.4 hPa WSW 3.5 km/h 15.8 km/h 94% 0.3 mm 0 W/m2
21:00 11.5 °C 10.7 °C 1009.4 hPa WSW 1.1 km/h 12.2 km/h 95% 0.3 mm 0 W/m2
21:05 11.5 °C 10.7 °C 1009.4 hPa Calm   7.2 km/h 95% 0.5 mm 0 W/m2
21:10 11.5 °C 10.9 °C 1009.4 hPa WSW 1.1 km/h 6.1 km/h 96% 0.5 mm 0 W/m2
21:15 11.5 °C 10.9 °C 1009.7 hPa WSW 3.5 km/h 6.1 km/h 96% 0.5 mm 0 W/m2
21:20 11.5 °C 10.9 °C 1009.7 hPa SW 2.6 km/h 6.1 km/h 96% 0.5 mm 0 W/m2
21:25 11.5 °C 10.9 °C 1009.4 hPa SW 2.6 km/h 6.1 km/h 96% 0.5 mm 0 W/m2
21:30 11.5 °C 10.9 °C 1009.7 hPa SW 2.6 km/h 5.0 km/h 96% 0.5 mm 0 W/m2
21:35 11.4 °C 10.8 °C 1009.7 hPa SW 3.5 km/h 7.2 km/h 96% 0.5 mm 0 W/m2
21:40 11.5 °C 10.7 °C 1009.4 hPa WSW 1.1 km/h 7.2 km/h 95% 0.5 mm 0 W/m2
21:45 11.5 °C 10.7 °C 1009.4 hPa Calm   7.2 km/h 95% 0.5 mm 0 W/m2
21:50 11.5 °C 10.7 °C 1009.4 hPa Calm   2.6 km/h 95% 0.5 mm 0 W/m2
21:55 11.5 °C 10.7 °C 1009.7 hPa Calm   2.6 km/h 95% 0.3 mm 0 W/m2
22:00 11.5 °C 10.7 °C 1009.7 hPa NNW 1.1 km/h 2.6 km/h 95% 0.3 mm 0 W/m2
22:05 11.5 °C 10.7 °C 1009.7 hPa NW 2.6 km/h 3.5 km/h 95% 0.0 mm 0 W/m2
22:10 11.5 °C 10.7 °C 1009.4 hPa NW 2.6 km/h 5.0 km/h 95% 0.0 mm 0 W/m2
22:15 11.4 °C 10.6 °C 1009.4 hPa NW 2.6 km/h 5.0 km/h 95% 0.0 mm 0 W/m2
22:20 11.3 °C 10.6 °C 1009.4 hPa NW 1.1 km/h 5.0 km/h 95% 0.0 mm 0 W/m2
22:25 11.2 °C 10.4 °C 1009.4 hPa NNW 2.6 km/h 5.0 km/h 95% 0.0 mm 0 W/m2
22:30 11.1 °C 10.3 °C 1009.4 hPa North 1.1 km/h 3.5 km/h 95% 0.0 mm 0 W/m2
22:35 11.1 °C 10.5 °C 1009.4 hPa North 2.6 km/h 3.5 km/h 96% 0.0 mm 0 W/m2
22:40 11.1 °C 10.5 °C 1009.7 hPa North 2.6 km/h 5.0 km/h 96% 0.0 mm 0 W/m2
22:45 11.1 °C 10.5 °C 1009.7 hPa North 2.6 km/h 5.0 km/h 96% 0.0 mm 0 W/m2
22:50 11.1 °C 10.5 °C 1009.7 hPa North 1.1 km/h 5.0 km/h 96% 0.0 mm 0 W/m2
22:55 11.1 °C 10.5 °C 1009.7 hPa Calm   5.0 km/h 96% 0.0 mm 0 W/m2
23:00 11.1 °C 10.7 °C 1009.7 hPa North 1.1 km/h 5.0 km/h 97% 0.0 mm 0 W/m2
23:05 11.1 °C 10.7 °C 1009.4 hPa Calm   3.5 km/h 97% 0.0 mm 0 W/m2
23:10 11.1 °C 10.7 °C 1009.7 hPa Calm   3.5 km/h 97% 0.0 mm 0 W/m2
23:15 11.1 °C 10.7 °C 1009.7 hPa Calm   2.6 km/h 97% 0.0 mm 0 W/m2
23:20 11.1 °C 10.7 °C 1009.4 hPa Calm   1.1 km/h 97% 0.0 mm 0 W/m2
23:25 10.9 °C 10.6 °C 1009.4 hPa Calm     98% 0.0 mm 0 W/m2
23:30 11.1 °C 10.7 °C 1009.7 hPa Calm     97% 0.0 mm 0 W/m2
23:35 11.1 °C 10.7 °C 1009.4 hPa Calm     97% 0.0 mm 0 W/m2
23:40 11.1 °C 10.7 °C 1009.4 hPa Calm     97% 0.0 mm 0 W/m2
23:45 11.1 °C 10.7 °C 1009.4 hPa Calm     97% 0.0 mm 0 W/m2
23:50 11.0 °C 10.7 °C 1009.4 hPa Calm     98% 0.0 mm 0 W/m2
23:55 10.9 °C 10.8 °C 1009.4 hPa Calm     99% 0.0 mm 0 W/m2
Northern Hawkes Bay. New Zealand Historic Data
Compliments of Weather Underground - 2 mb